Time;durP1;ratioP1;P1;durP2;ratioP2;P2;SDS_P1;SDS_P2;PMS_P1;PMS_P2;Temp;Humidity;BMP_temperature;BMP_pressure;BME280_temperature;BME280_humidity;BME280_pressure;Samples;Min_cycle;Max_cycle;Signal;HPM_P1;HPM_P2
2023/12/17 00:00:44;;;;;;;4.25;2.83;;;10.00;99.90;;;;;;4995623;28;20077;-77
2023/12/17 00:03:10;;;;;;;6.05;2.60;;;10.00;99.90;;;;;;4996429;28;20066;-77
2023/12/17 00:05:36;;;;;;;5.75;2.70;;;10.00;99.90;;;;;;4960017;28;20038;-77
2023/12/17 00:08:01;;;;;;;7.68;3.75;;;10.00;99.90;;;;;;4983352;28;20044;-77
2023/12/17 00:10:27;;;;;;;6.18;2.90;;;10.00;99.90;;;;;;4997250;28;20142;-77
2023/12/17 00:12:53;;;;;;;8.63;3.28;;;10.00;99.90;;;;;;4989618;28;20041;-77
2023/12/17 00:15:19;;;;;;;6.82;2.63;;;10.00;99.90;;;;;;4997587;28;20054;-77
2023/12/17 00:17:44;;;;;;;7.57;2.80;;;9.90;99.90;;;;;;5000608;28;20042;-77
2023/12/17 00:20:10;;;;;;;8.70;3.42;;;9.90;99.90;;;;;;5078150;28;20123;-77
2023/12/17 00:22:36;;;;;;;3.92;2.22;;;9.90;99.90;;;;;;4979359;28;20050;-77
2023/12/17 00:25:03;;;;;;;3.45;2.17;;;10.00;99.90;;;;;;4985984;28;20053;-77
2023/12/17 00:27:28;;;;;;;5.15;2.65;;;9.90;99.90;;;;;;5028535;28;20074;-77
2023/12/17 00:29:54;;;;;;;4.88;2.47;;;9.90;99.90;;;;;;4989177;28;20041;-77
2023/12/17 00:32:20;;;;;;;3.78;2.50;;;9.90;99.90;;;;;;4994003;28;20133;-77
2023/12/17 00:34:45;;;;;;;6.85;2.03;;;9.90;99.90;;;;;;5079348;28;20182;-77
2023/12/17 00:37:11;;;;;;;9.13;2.58;;;9.90;99.90;;;;;;5025234;28;20068;-77
2023/12/17 00:39:37;;;;;;;4.70;2.42;;;9.90;99.90;;;;;;4981467;28;20039;-77
2023/12/17 00:42:02;;;;;;;6.47;2.88;;;9.90;99.90;;;;;;4982855;28;20081;-77
2023/12/17 00:44:28;;;;;;;8.73;2.42;;;9.90;99.90;;;;;;4985959;28;20042;-77
2023/12/17 00:46:54;;;;;;;9.05;2.58;;;9.90;99.90;;;;;;5003526;28;20030;-77
2023/12/17 00:49:20;;;;;;;6.35;2.80;;;9.90;99.90;;;;;;5050116;28;20123;-77
2023/12/17 00:51:45;;;;;;;8.68;3.20;;;9.90;99.90;;;;;;4995891;28;20042;-77
2023/12/17 00:54:11;;;;;;;5.68;2.40;;;9.90;99.90;;;;;;4989277;28;20049;-77
2023/12/17 00:56:37;;;;;;;6.70;2.38;;;9.90;99.90;;;;;;4961554;28;20054;-77
2023/12/17 00:59:02;;;;;;;6.72;3.05;;;9.90;99.90;;;;;;5011828;28;20046;-78
2023/12/17 01:01:28;;;;;;;6.72;2.85;;;9.90;99.90;;;;;;4975308;28;20563;-77
2023/12/17 01:03:54;;;;;;;5.88;2.10;;;9.90;99.90;;;;;;4978946;28;20077;-77
2023/12/17 01:06:20;;;;;;;6.82;2.88;;;9.90;99.90;;;;;;4986677;28;20054;-77
2023/12/17 01:08:45;;;;;;;6.72;3.05;;;9.90;99.90;;;;;;4974179;28;20048;-77
2023/12/17 01:11:11;;;;;;;6.43;3.22;;;9.90;99.90;;;;;;4958146;28;20493;-77
2023/12/17 01:13:37;;;;;;;8.50;3.25;;;9.90;99.90;;;;;;4981687;28;20133;-77
2023/12/17 01:16:04;;;;;;;4.40;2.47;;;9.90;99.90;;;;;;4962063;28;20096;-77
2023/12/17 01:18:30;;;;;;;8.23;2.80;;;9.90;99.90;;;;;;5024707;28;20103;-77
2023/12/17 01:20:59;;;;;;;5.95;2.20;;;9.90;99.90;;;;;;5008814;28;20095;-77
2023/12/17 01:23:25;;;;;;;7.32;2.85;;;9.90;99.90;;;;;;5011171;28;20099;-77
2023/12/17 01:25:50;;;;;;;5.72;2.83;;;9.90;99.90;;;;;;4996793;28;20038;-77
2023/12/17 01:28:16;;;;;;;9.57;3.20;;;9.90;99.90;;;;;;4962660;28;20062;-77
2023/12/17 01:30:42;;;;;;;6.18;2.97;;;9.90;99.90;;;;;;4982382;28;20041;-77
2023/12/17 01:33:07;;;;;;;3.60;2.92;;;9.90;99.90;;;;;;4964589;28;20046;-77
2023/12/17 01:35:33;;;;;;;8.52;3.47;;;9.90;99.90;;;;;;4995501;28;20038;-77
2023/12/17 01:37:59;;;;;;;4.85;2.95;;;9.90;99.90;;;;;;4967307;28;20136;-77
2023/12/17 01:40:24;;;;;;;4.55;2.25;;;9.90;99.90;;;;;;4978993;28;20050;-77
2023/12/17 01:42:53;;;;;;;11.52;3.13;;;9.90;99.90;;;;;;4980331;28;20034;-77
2023/12/17 01:45:19;;;;;;;13.50;3.58;;;9.90;99.90;;;;;;4978645;28;20077;-77
2023/12/17 01:47:45;;;;;;;12.82;2.45;;;9.90;99.90;;;;;;4987903;28;20121;-76
2023/12/17 01:50:11;;;;;;;11.10;3.45;;;9.90;99.90;;;;;;4990855;28;20058;-77
2023/12/17 01:52:38;;;;;;;8.95;3.90;;;9.90;99.90;;;;;;4979989;28;20042;-77
2023/12/17 01:55:05;;;;;;;8.95;2.97;;;9.90;99.90;;;;;;4990184;28;20046;-77
2023/12/17 01:57:31;;;;;;;13.77;3.60;;;9.90;99.90;;;;;;4963139;28;20103;-77
2023/12/17 01:59:57;;;;;;;12.88;3.47;;;9.90;99.90;;;;;;4981246;28;20353;-77
2023/12/17 02:02:23;;;;;;;10.95;2.55;;;9.90;99.90;;;;;;4993580;28;20541;-77
2023/12/17 02:04:50;;;;;;;11.25;3.08;;;9.90;99.90;;;;;;4964052;28;20038;-77
2023/12/17 02:07:16;;;;;;;6.45;2.80;;;9.90;99.90;;;;;;4986438;28;21538;-77
2023/12/17 02:09:42;;;;;;;14.90;3.42;;;9.90;99.90;;;;;;5010983;28;20081;-77
2023/12/17 02:12:14;;;;;;;5.28;2.90;;;9.90;99.90;;;;;;4991516;28;20050;-77
2023/12/17 02:14:40;;;;;;;7.07;3.25;;;9.90;99.90;;;;;;5004686;28;20141;-77
2023/12/17 02:17:06;;;;;;;7.18;3.05;;;9.90;99.90;;;;;;4974184;28;20518;-77
2023/12/17 02:19:32;;;;;;;8.57;3.55;;;9.80;99.90;;;;;;5022113;28;20056;-77
2023/12/17 02:21:57;;;;;;;8.05;3.17;;;9.80;99.90;;;;;;5018498;28;20056;-77
2023/12/17 02:24:23;;;;;;;6.30;2.58;;;9.80;99.90;;;;;;5031763;28;20472;-77
2023/12/17 02:26:49;;;;;;;5.97;3.63;;;9.80;99.90;;;;;;5001771;28;20060;-77
2023/12/17 02:29:14;;;;;;;13.77;4.07;;;9.80;99.90;;;;;;5026787;28;20046;-77
2023/12/17 02:31:40;;;;;;;10.88;4.38;;;9.80;99.90;;;;;;5015924;28;20038;-77
2023/12/17 02:34:06;;;;;;;5.25;3.28;;;9.80;99.90;;;;;;5041077;28;20044;-77
2023/12/17 02:36:32;;;;;;;9.63;4.90;;;9.80;99.90;;;;;;5053349;28;20057;-77
2023/12/17 02:38:57;;;;;;;9.07;4.32;;;9.80;99.90;;;;;;5079765;28;20558;-77
2023/12/17 02:41:23;;;;;;;11.77;3.60;;;9.80;99.90;;;;;;5018883;28;20156;-77
2023/12/17 02:43:49;;;;;;;8.02;3.53;;;9.80;99.90;;;;;;5046961;28;20041;-77
2023/12/17 02:46:15;;;;;;;5.60;3.25;;;9.80;99.90;;;;;;4999654;28;20516;-77
2023/12/17 02:48:41;;;;;;;6.47;3.42;;;9.70;99.90;;;;;;5062480;28;20063;-77
2023/12/17 02:51:07;;;;;;;8.18;3.70;;;9.70;99.90;;;;;;5004717;28;20045;-77
2023/12/17 02:53:32;;;;;;;8.63;3.78;;;9.80;99.90;;;;;;5013988;28;20042;-77
2023/12/17 02:55:59;;;;;;;10.90;3.72;;;9.70;99.90;;;;;;4973600;28;20046;-77
2023/12/17 02:58:25;;;;;;;7.22;3.30;;;9.70;99.90;;;;;;5008180;28;20125;-77
2023/12/17 03:00:51;;;;;;;9.75;2.92;;;9.70;99.90;;;;;;4964393;28;20041;-76
2023/12/17 03:03:16;;;;;;;9.75;3.30;;;9.80;99.90;;;;;;4981048;28;20056;-77
2023/12/17 03:05:42;;;;;;;6.05;3.70;;;9.70;99.90;;;;;;4991299;28;20041;-76
2023/12/17 03:08:08;;;;;;;7.72;3.00;;;9.70;99.90;;;;;;4975247;28;20098;-77
2023/12/17 03:10:34;;;;;;;5.20;2.72;;;9.70;99.90;;;;;;4989732;28;20042;-77
2023/12/17 03:12:59;;;;;;;10.95;3.60;;;9.80;99.90;;;;;;4998265;28;20102;-77
2023/12/17 03:15:25;;;;;;;6.03;2.70;;;9.70;99.90;;;;;;4993988;28;20053;-77
2023/12/17 03:17:51;;;;;;;8.00;2.88;;;9.70;99.90;;;;;;4995499;28;20046;-77
2023/12/17 03:20:16;;;;;;;6.93;3.08;;;9.80;99.90;;;;;;4994778;28;20072;-77
2023/12/17 03:22:42;;;;;;;7.22;3.22;;;9.80;99.90;;;;;;4998748;28;20049;-77
2023/12/17 03:25:08;;;;;;;8.55;3.45;;;9.80;99.90;;;;;;4982463;28;20046;-77
2023/12/17 03:27:33;;;;;;;9.13;3.33;;;9.80;99.90;;;;;;4991402;28;20042;-77
2023/12/17 03:30:00;;;;;;;10.25;2.67;;;9.80;99.90;;;;;;4977651;28;20043;-77
2023/12/17 03:32:25;;;;;;;9.63;3.83;;;9.80;99.90;;;;;;5029991;28;20050;-77
2023/12/17 03:34:51;;;;;;;12.07;3.60;;;9.80;99.90;;;;;;4986748;28;20428;-77
2023/12/17 03:37:17;;;;;;;6.50;3.15;;;9.80;99.90;;;;;;4962313;28;19922;-77
2023/12/17 03:39:42;;;;;;;7.47;2.92;;;9.80;99.90;;;;;;4987982;28;20049;-77
2023/12/17 03:42:08;;;;;;;7.18;4.00;;;9.80;99.90;;;;;;4981819;28;20067;-77
2023/12/17 03:44:34;;;;;;;7.88;3.08;;;9.80;99.90;;;;;;4994484;28;20042;-77
2023/12/17 03:46:59;;;;;;;9.80;3.05;;;9.80;99.90;;;;;;5001277;28;20052;-76
2023/12/17 03:49:25;;;;;;;11.40;3.45;;;9.80;99.90;;;;;;4990014;28;20095;-77
2023/12/17 03:51:51;;;;;;;7.72;3.30;;;9.80;99.90;;;;;;5013463;28;20156;-76
2023/12/17 03:54:16;;;;;;;4.30;2.22;;;9.70;99.90;;;;;;5015300;28;20111;-77
2023/12/17 03:56:47;;;;;;;4.93;2.65;;;9.80;99.90;;;;;;4974055;28;20046;-76
2023/12/17 03:59:13;;;;;;;6.82;3.70;;;9.80;99.90;;;;;;4994402;28;20042;-77
2023/12/17 04:01:48;;;;;;;11.32;4.13;;;9.70;99.90;;;;;;4986050;28;20034;-77
2023/12/17 04:04:14;;;;;;;6.15;2.78;;;9.80;99.90;;;;;;5017772;28;20048;-77
2023/12/17 04:06:43;;;;;;;8.23;4.00;;;9.80;99.90;;;;;;5006880;28;20122;-77
2023/12/17 04:09:10;;;;;;;12.93;4.32;;;9.80;99.90;;;;;;5064243;28;20060;-77
2023/12/17 04:11:35;;;;;;;8.52;3.72;;;9.80;99.90;;;;;;4993460;28;20046;-76
2023/12/17 04:14:02;;;;;;;10.23;3.65;;;9.80;99.90;;;;;;4989720;28;20096;-76
2023/12/17 04:16:27;;;;;;;5.10;3.33;;;9.80;99.90;;;;;;4986443;28;20041;-77
2023/12/17 04:18:53;;;;;;;10.05;3.92;;;9.80;99.90;;;;;;5042012;28;20381;-77
2023/12/17 04:21:19;;;;;;;6.60;3.47;;;9.80;99.90;;;;;;5039344;28;20110;-77
2023/12/17 04:23:45;;;;;;;6.68;3.38;;;9.80;99.90;;;;;;4974765;28;20106;-76
2023/12/17 04:26:11;;;;;;;6.38;3.47;;;9.80;99.90;;;;;;5006695;28;20042;-77
2023/12/17 04:28:37;;;;;;;4.88;3.03;;;9.80;99.90;;;;;;5011788;28;20038;-77
2023/12/17 04:31:03;;;;;;;14.13;3.80;;;9.80;99.90;;;;;;4996009;28;20038;-77
2023/12/17 04:33:29;;;;;;;6.38;3.42;;;9.80;99.90;;;;;;4981541;28;20060;-77
2023/12/17 04:35:54;;;;;;;5.57;3.13;;;9.80;99.90;;;;;;4964596;28;20054;-77
2023/12/17 04:38:21;;;;;;;9.00;3.53;;;9.70;99.90;;;;;;4995220;28;20034;-77
2023/12/17 04:40:46;;;;;;;13.40;4.63;;;9.80;99.90;;;;;;4996320;28;20486;-77
2023/12/17 04:43:12;;;;;;;10.95;3.47;;;9.80;99.90;;;;;;4974752;28;20076;-76
2023/12/17 04:45:38;;;;;;;7.22;3.55;;;9.80;99.90;;;;;;5080426;28;20081;-77
2023/12/17 04:48:04;;;;;;;9.95;3.50;;;9.80;99.90;;;;;;5008960;28;20043;-76
2023/12/17 04:50:31;;;;;;;7.35;4.00;;;9.80;99.90;;;;;;4993134;28;20110;-76
2023/12/17 04:52:57;;;;;;;7.43;3.83;;;9.80;99.90;;;;;;4964831;28;20038;-76
2023/12/17 04:55:23;;;;;;;7.70;4.38;;;9.80;99.90;;;;;;5008570;28;20038;-76
2023/12/17 04:57:49;;;;;;;6.38;3.33;;;9.80;99.90;;;;;;4991385;28;20042;-77
2023/12/17 05:00:15;;;;;;;8.00;3.83;;;9.80;99.90;;;;;;4986489;28;20061;-76
2023/12/17 05:02:40;;;;;;;5.78;3.33;;;9.80;99.90;;;;;;5011296;28;20046;-76
2023/12/17 05:05:07;;;;;;;6.35;3.35;;;9.80;99.90;;;;;;5006873;28;20410;-76
2023/12/17 05:07:33;;;;;;;6.35;4.15;;;9.70;99.90;;;;;;4978381;28;20425;-76
2023/12/17 05:09:59;;;;;;;4.47;3.00;;;9.70;99.90;;;;;;4983085;28;20068;-77
2023/12/17 05:12:25;;;;;;;7.78;4.35;;;9.70;99.90;;;;;;5010951;28;20052;-77
2023/12/17 05:14:50;;;;;;;9.13;3.80;;;9.70;99.90;;;;;;5004404;28;20577;-77
2023/12/17 05:17:16;;;;;;;6.82;3.50;;;9.70;99.90;;;;;;5033685;28;20052;-76
2023/12/17 05:19:42;;;;;;;10.57;4.57;;;9.70;99.90;;;;;;5000058;28;20046;-77
2023/12/17 05:22:07;;;;;;;6.82;3.22;;;9.70;99.90;;;;;;5051770;28;20566;-77
2023/12/17 05:24:33;;;;;;;7.45;3.58;;;9.70;99.90;;;;;;5007960;28;20034;-76
2023/12/17 05:26:59;;;;;;;6.28;3.30;;;9.70;99.90;;;;;;5000685;28;20038;-76
2023/12/17 05:29:25;;;;;;;4.95;3.22;;;9.60;99.90;;;;;;5045548;28;20103;-76
2023/12/17 05:31:50;;;;;;;11.35;3.55;;;9.60;99.90;;;;;;5002644;28;20086;-77
2023/12/17 05:34:16;;;;;;;3.50;2.50;;;9.60;99.90;;;;;;4976399;28;20074;-76
2023/12/17 05:36:42;;;;;;;7.05;3.78;;;9.60;99.90;;;;;;4995443;28;20048;-76
2023/12/17 05:39:08;;;;;;;5.88;3.10;;;9.60;99.90;;;;;;4980676;28;20042;-76
2023/12/17 05:41:34;;;;;;;5.95;3.03;;;9.60;99.90;;;;;;4989046;28;20042;-76
2023/12/17 05:43:59;;;;;;;6.43;3.45;;;9.60;99.90;;;;;;4963897;28;20050;-77
2023/12/17 05:46:26;;;;;;;7.70;3.47;;;9.60;99.90;;;;;;4953812;28;20038;-76
2023/12/17 05:48:52;;;;;;;8.50;3.47;;;9.60;99.90;;;;;;5007262;28;20054;-76
2023/12/17 05:51:19;;;;;;;5.38;2.60;;;9.60;99.90;;;;;;4973405;28;20167;-76
2023/12/17 05:53:45;;;;;;;4.50;2.55;;;9.60;99.90;;;;;;5014682;28;20054;-76
2023/12/17 05:56:11;;;;;;;5.93;2.47;;;9.60;99.90;;;;;;4997604;28;20053;-77
2023/12/17 05:58:37;;;;;;;5.70;2.85;;;9.60;99.90;;;;;;4976720;28;20049;-76
2023/12/17 06:01:03;;;;;;;6.78;2.60;;;9.60;99.90;;;;;;5001152;28;20133;-76
2023/12/17 06:03:30;;;;;;;5.60;2.92;;;9.60;99.90;;;;;;4986764;28;20470;-77
2023/12/17 06:05:56;;;;;;;11.75;3.03;;;9.60;99.90;;;;;;4963582;28;20036;-76
2023/12/17 06:08:21;;;;;;;5.32;3.13;;;9.60;99.90;;;;;;4996881;28;20069;-76
2023/12/17 06:10:47;;;;;;;4.72;2.63;;;9.60;99.90;;;;;;4989465;28;20044;-76
2023/12/17 06:13:13;;;;;;;7.70;3.17;;;9.50;99.90;;;;;;4979178;28;20038;-76
2023/12/17 06:15:39;;;;;;;5.30;3.17;;;9.50;99.90;;;;;;5013983;28;20111;-76
2023/12/17 06:18:05;;;;;;;7.95;2.88;;;9.50;99.90;;;;;;5013448;28;20472;-76
2023/12/17 06:20:31;;;;;;;6.35;3.20;;;9.50;99.90;;;;;;4965452;28;20075;-76
2023/12/17 06:22:56;;;;;;;6.80;2.78;;;9.50;99.90;;;;;;5088194;28;20044;-76
2023/12/17 06:25:22;;;;;;;10.63;2.92;;;9.50;99.90;;;;;;5030684;28;20048;-76
2023/12/17 06:27:52;;;;;;;4.05;3.03;;;9.50;99.90;;;;;;5010556;28;20045;-76
2023/12/17 06:30:18;;;;;;;9.68;3.50;;;9.50;99.90;;;;;;5004525;28;20130;-76
2023/12/17 06:32:45;;;;;;;4.05;2.72;;;9.40;99.90;;;;;;5022883;28;20048;-76
2023/12/17 06:35:10;;;;;;;8.68;4.05;;;9.50;99.90;;;;;;5044605;28;20042;-77
2023/12/17 06:37:36;;;;;;;9.13;4.32;;;9.50;99.90;;;;;;4988766;28;20165;-76
2023/12/17 06:40:02;;;;;;;7.55;4.00;;;9.50;99.90;;;;;;4985538;28;20073;-76
2023/12/17 06:42:28;;;;;;;7.95;3.10;;;9.50;99.90;;;;;;5068507;28;20119;-77
2023/12/17 06:44:53;;;;;;;10.40;3.58;;;9.50;99.90;;;;;;5051881;28;20048;-76
2023/12/17 06:47:19;;;;;;;13.45;3.70;;;9.40;99.90;;;;;;4977365;28;20042;-76
2023/12/17 06:49:45;;;;;;;5.20;3.00;;;9.50;99.90;;;;;;5010109;28;20066;-76
2023/12/17 06:52:11;;;;;;;5.97;3.08;;;9.50;99.90;;;;;;5011388;28;20450;-76
2023/12/17 06:54:36;;;;;;;8.40;3.17;;;9.50;99.90;;;;;;4999870;28;20030;-76
2023/12/17 06:57:02;;;;;;;10.60;3.45;;;9.40;99.90;;;;;;4975584;28;20042;-77
2023/12/17 06:59:28;;;;;;;9.05;4.45;;;9.50;99.90;;;;;;4972867;28;20073;-76
2023/12/17 07:01:54;;;;;;;8.77;3.90;;;9.40;99.90;;;;;;4979706;28;20072;-76
2023/12/17 07:04:19;;;;;;;4.63;3.20;;;9.50;99.90;;;;;;4986013;28;20045;-77
2023/12/17 07:06:46;;;;;;;7.95;3.53;;;9.40;99.90;;;;;;4985998;28;20117;-76
2023/12/17 07:09:12;;;;;;;6.95;3.53;;;9.40;99.90;;;;;;4983976;28;20124;-76
2023/12/17 07:11:39;;;;;;;9.18;3.38;;;9.40;99.90;;;;;;4982459;28;20046;-76
2023/12/17 07:14:05;;;;;;;8.25;3.25;;;9.40;99.90;;;;;;4976859;28;20046;-76
2023/12/17 07:16:30;;;;;;;7.25;3.53;;;9.40;99.90;;;;;;5008661;28;20053;-76
2023/12/17 07:18:56;;;;;;;6.22;3.40;;;9.40;99.90;;;;;;4977658;28;20046;-76
2023/12/17 07:21:22;;;;;;;9.27;4.20;;;9.40;99.90;;;;;;4965624;28;20770;-76
2023/12/17 07:23:48;;;;;;;10.55;4.47;;;9.40;99.90;;;;;;4994509;28;20042;-76
2023/12/17 07:26:14;;;;;;;8.68;4.30;;;9.40;99.90;;;;;;4993568;28;20080;-76
2023/12/17 07:28:40;;;;;;;6.75;4.20;;;9.40;99.90;;;;;;4997902;28;20042;-76
2023/12/17 07:31:06;;;;;;;13.38;4.93;;;9.40;99.90;;;;;;5018898;28;20044;-76
2023/12/17 07:33:32;;;;;;;11.35;4.68;;;9.40;99.90;;;;;;5014170;28;20128;-76
2023/12/17 07:35:57;;;;;;;8.10;4.38;;;9.40;99.90;;;;;;4979006;28;20046;-76
2023/12/17 07:38:23;;;;;;;9.00;4.47;;;9.40;99.90;;;;;;4964709;28;20045;-76
2023/12/17 07:40:48;;;;;;;14.95;4.93;;;9.30;99.90;;;;;;4976964;28;20053;-76
2023/12/17 07:43:14;;;;;;;9.18;4.63;;;9.30;99.90;;;;;;4982149;28;20526;-76
2023/12/17 07:45:40;;;;;;;9.70;5.15;;;9.30;99.90;;;;;;4990947;28;20046;-77
2023/12/17 07:48:07;;;;;;;11.15;5.63;;;9.30;99.90;;;;;;4999889;28;20140;-76
2023/12/17 07:50:32;;;;;;;15.48;5.90;;;9.40;99.90;;;;;;4995110;28;20038;-76
2023/12/17 07:52:58;;;;;;;10.60;4.90;;;9.30;99.90;;;;;;4980444;28;20057;-76
2023/12/17 07:55:24;;;;;;;9.30;4.95;;;9.30;99.90;;;;;;5001525;28;20128;-76
2023/12/17 07:57:50;;;;;;;13.80;5.28;;;9.30;99.90;;;;;;4998258;28;20042;-76
2023/12/17 08:00:16;;;;;;;11.93;5.80;;;9.30;99.90;;;;;;4984013;28;20053;-76
2023/12/17 08:02:41;;;;;;;12.18;5.15;;;9.30;99.90;;;;;;4995078;28;20056;-77
2023/12/17 08:05:09;;;;;;;17.80;5.10;;;9.30;99.90;;;;;;5018543;28;20046;-77
2023/12/17 08:07:36;;;;;;;8.35;4.70;;;9.30;99.90;;;;;;5018602;28;20054;-76
2023/12/17 08:10:03;;;;;;;12.00;4.03;;;9.30;99.90;;;;;;5004163;28;20044;-76
2023/12/17 08:12:29;;;;;;;17.02;6.50;;;9.30;99.90;;;;;;5038997;28;20105;-76
2023/12/17 08:14:55;;;;;;;9.38;4.32;;;9.30;99.90;;;;;;5019278;28;20090;-76
2023/12/17 08:17:21;;;;;;;8.82;3.78;;;9.30;99.90;;;;;;5050033;28;20572;-77
2023/12/17 08:19:46;;;;;;;8.45;3.90;;;9.30;99.90;;;;;;5001905;28;20045;-76
2023/12/17 08:22:12;;;;;;;13.52;4.25;;;9.30;99.90;;;;;;4985150;28;20080;-77
2023/12/17 08:24:38;;;;;;;11.00;3.47;;;9.30;99.90;;;;;;4983366;28;20038;-77
2023/12/17 08:27:04;;;;;;;8.32;3.90;;;9.40;99.90;;;;;;4996084;28;20040;-76
2023/12/17 08:29:29;;;;;;;11.57;3.42;;;9.40;99.90;;;;;;4983821;28;20065;-77
2023/12/17 08:31:58;;;;;;;10.98;3.70;;;9.40;99.90;;;;;;4997410;28;20060;-77
2023/12/17 08:34:31;;;;;;;10.77;3.75;;;9.40;99.90;;;;;;5000397;28;20041;-76
2023/12/17 08:36:57;;;;;;;5.65;3.22;;;9.40;99.90;;;;;;4978094;28;20049;-77
2023/12/17 08:39:23;;;;;;;8.35;3.03;;;9.40;99.90;;;;;;4997501;28;20056;-76
2023/12/17 08:41:53;;;;;;;9.70;3.42;;;9.40;99.90;;;;;;4980129;28;20553;-77
2023/12/17 08:44:23;;;;;;;5.85;3.30;;;9.40;99.90;;;;;;5009012;28;20059;-77
2023/12/17 08:46:52;;;;;;;11.25;3.40;;;9.40;99.90;;;;;;4984116;28;20069;-77
2023/12/17 08:49:18;;;;;;;10.23;3.88;;;9.40;99.90;;;;;;4978790;28;20527;-77
2023/12/17 08:51:45;;;;;;;12.18;4.25;;;9.40;99.90;;;;;;4977152;28;20043;-77
2023/12/17 08:54:12;;;;;;;9.93;3.35;;;9.40;99.90;;;;;;4998649;28;20080;-76
2023/12/17 08:56:38;;;;;;;15.10;4.38;;;9.40;99.90;;;;;;5016709;28;20094;-76
2023/12/17 08:59:04;;;;;;;10.20;3.60;;;9.40;99.90;;;;;;4999331;28;20042;-76
2023/12/17 09:01:30;;;;;;;10.05;3.40;;;9.40;99.90;;;;;;4997403;28;20639;-76
2023/12/17 09:03:56;;;;;;;9.05;3.72;;;9.40;99.90;;;;;;4981647;28;20042;-76
2023/12/17 09:06:21;;;;;;;13.27;3.97;;;9.40;99.90;;;;;;4979053;28;20043;-77
2023/12/17 09:08:47;;;;;;;11.35;5.35;;;9.40;99.90;;;;;;4992142;28;20081;-76
2023/12/17 09:11:13;;;;;;;5.72;3.40;;;9.40;99.90;;;;;;4981208;28;20034;-77
2023/12/17 09:13:38;;;;;;;16.02;5.78;;;9.40;99.90;;;;;;5010598;28;20106;-77
2023/12/17 09:16:05;;;;;;;11.45;4.50;;;9.50;99.90;;;;;;4982902;28;20050;-77
2023/12/17 09:18:31;;;;;;;8.45;3.40;;;9.50;99.90;;;;;;5014951;28;20048;-77
2023/12/17 09:20:57;;;;;;;16.23;5.03;;;9.50;99.90;;;;;;4980415;28;20082;-76
2023/12/17 09:23:22;;;;;;;11.57;4.60;;;9.50;99.90;;;;;;4977752;28;20046;-77
2023/12/17 09:25:48;;;;;;;16.98;5.13;;;9.50;99.90;;;;;;4979534;28;20410;-77
2023/12/17 09:28:14;;;;;;;11.43;5.25;;;9.50;99.90;;;;;;4980992;28;20033;-77
2023/12/17 09:30:39;;;;;;;13.35;4.97;;;9.50;99.90;;;;;;5000185;28;20037;-77
2023/12/17 09:33:06;;;;;;;11.48;6.20;;;9.50;99.90;;;;;;4982447;28;20519;-77
2023/12/17 09:35:32;;;;;;;11.98;5.22;;;9.50;99.90;;;;;;4983201;28;20481;-76
2023/12/17 09:37:58;;;;;;;12.35;4.57;;;9.60;99.90;;;;;;4981115;28;20035;-77
2023/12/17 09:40:24;;;;;;;12.45;5.72;;;9.60;99.90;;;;;;4981516;28;20048;-77
2023/12/17 09:42:52;;;;;;;13.65;5.80;;;9.50;99.90;;;;;;4994500;28;20073;-76
2023/12/17 09:45:18;;;;;;;15.18;5.10;;;9.60;99.90;;;;;;4979479;28;20074;-76
2023/12/17 09:47:44;;;;;;;14.20;5.72;;;9.60;99.90;;;;;;4973939;28;20069;-76
2023/12/17 09:50:11;;;;;;;14.02;5.78;;;9.60;99.90;;;;;;4984585;28;20038;-77
2023/12/17 09:52:41;;;;;;;17.10;8.02;;;9.60;99.90;;;;;;5001551;28;20102;-77
2023/12/17 09:55:09;;;;;;;16.92;5.75;;;9.60;99.90;;;;;;5001759;28;20046;-77
2023/12/17 09:57:34;;;;;;;13.57;6.90;;;9.60;99.90;;;;;;4998344;28;20050;-76
2023/12/17 10:00:00;;;;;;;19.38;7.05;;;9.60;99.90;;;;;;4982829;28;20125;-76
2023/12/17 10:02:26;;;;;;;15.98;6.38;;;9.70;99.90;;;;;;4983368;28;20900;-76
2023/12/17 10:04:51;;;;;;;17.52;6.32;;;9.70;99.90;;;;;;5000801;28;20050;-77
2023/12/17 10:07:18;;;;;;;14.23;5.38;;;9.70;99.90;;;;;;4968799;28;20038;-77
2023/12/17 10:09:44;;;;;;;13.55;5.88;;;9.70;99.90;;;;;;4969329;28;20046;-77
2023/12/17 10:12:09;;;;;;;14.38;6.63;;;9.70;99.90;;;;;;5003538;28;20060;-76
2023/12/17 10:14:35;;;;;;;17.85;6.35;;;9.70;99.90;;;;;;5018339;28;20072;-76
2023/12/17 10:17:02;;;;;;;19.90;5.47;;;9.70;99.90;;;;;;4983795;28;20064;-77
2023/12/17 10:19:27;;;;;;;16.23;6.72;;;9.70;99.90;;;;;;4984808;28;20049;-76
2023/12/17 10:21:53;;;;;;;15.25;5.38;;;9.70;99.90;;;;;;5003303;28;20128;-76
2023/12/17 10:24:30;;;;;;;13.05;5.82;;;9.70;99.90;;;;;;5001538;28;20045;-77
2023/12/17 10:26:55;;;;;;;12.57;4.53;;;9.70;99.90;;;;;;5001742;28;20046;-77
2023/12/17 10:29:21;;;;;;;17.58;5.22;;;9.70;99.90;;;;;;4986999;28;20057;-77
2023/12/17 10:31:47;;;;;;;11.48;5.03;;;9.70;99.90;;;;;;4983767;28;20113;-77
2023/12/17 10:34:22;;;;;;;11.52;5.03;;;9.70;99.90;;;;;;4986967;28;20044;-77
2023/12/17 10:36:48;;;;;;;13.13;5.03;;;9.70;99.90;;;;;;4999866;28;20196;-76
2023/12/17 10:39:16;;;;;;;11.43;4.82;;;9.70;99.90;;;;;;5003253;28;20097;-77
2023/12/17 10:41:42;;;;;;;11.45;5.25;;;9.70;99.90;;;;;;5019424;28;20049;-77
2023/12/17 10:44:12;;;;;;;9.10;4.30;;;9.70;99.90;;;;;;4985619;28;20069;-76
2023/12/17 10:46:48;;;;;;;9.10;5.13;;;9.70;99.90;;;;;;5002570;28;20038;-77
2023/12/17 10:49:15;;;;;;;15.13;5.88;;;9.60;99.90;;;;;;4957281;28;20073;-77
2023/12/17 10:51:43;;;;;;;7.95;3.92;;;9.60;99.90;;;;;;4986730;28;20088;-76
2023/12/17 10:54:12;;;;;;;9.55;4.20;;;9.60;99.90;;;;;;5016869;28;20079;-77
2023/12/17 10:56:47;;;;;;;10.63;4.40;;;9.60;99.90;;;;;;4985837;28;20056;-76
2023/12/17 10:59:17;;;;;;;11.70;4.93;;;9.60;99.90;;;;;;4998373;28;20060;-77
2023/12/17 11:01:49;;;;;;;13.73;4.85;;;9.60;99.90;;;;;;5000322;28;20070;-77
2023/12/17 11:04:14;;;;;;;16.23;5.60;;;9.70;99.90;;;;;;5020078;28;20062;-77
2023/12/17 11:06:40;;;;;;;14.32;5.70;;;9.70;99.90;;;;;;4969222;28;20053;-76
2023/12/17 11:09:06;;;;;;;10.70;4.63;;;9.70;99.90;;;;;;5055240;28;20040;-77
2023/12/17 11:11:32;;;;;;;14.65;5.93;;;9.70;99.90;;;;;;4976626;28;20057;-76
2023/12/17 11:13:59;;;;;;;14.50;6.05;;;9.80;99.90;;;;;;4968690;28;20082;-76
2023/12/17 11:16:25;;;;;;;9.52;4.68;;;9.80;99.90;;;;;;4985829;28;20096;-76
2023/12/17 11:18:54;;;;;;;12.38;5.05;;;9.70;99.90;;;;;;4999826;28;20046;-76
2023/12/17 11:21:20;;;;;;;15.10;5.65;;;9.80;99.90;;;;;;5001897;28;20042;-76
2023/12/17 11:23:47;;;;;;;9.00;5.25;;;9.70;99.90;;;;;;4983643;28;20064;-76
2023/12/17 11:26:15;;;;;;;12.18;4.78;;;9.70;99.90;;;;;;5014365;28;20063;-76
2023/12/17 11:28:41;;;;;;;11.30;5.85;;;9.70;99.90;;;;;;5016772;28;20052;-76
2023/12/17 11:31:07;;;;;;;14.52;5.90;;;9.70;99.90;;;;;;4984882;28;20077;-76
2023/12/17 11:33:33;;;;;;;18.80;5.28;;;9.70;99.90;;;;;;4985804;28;20041;-76
2023/12/17 11:35:59;;;;;;;18.25;6.60;;;9.70;99.90;;;;;;4980678;28;20049;-77
2023/12/17 11:38:26;;;;;;;21.02;7.30;;;9.80;99.90;;;;;;4998496;28;20057;-76
2023/12/17 11:40:53;;;;;;;17.98;6.15;;;9.80;99.90;;;;;;4983437;28;20046;-76
2023/12/17 11:43:23;;;;;;;14.65;6.65;;;9.80;99.90;;;;;;5033488;28;20045;-76
2023/12/17 11:45:50;;;;;;;15.15;6.88;;;9.80;99.90;;;;;;4969398;28;20087;-76
2023/12/17 11:48:18;;;;;;;15.02;6.38;;;9.80;99.90;;;;;;4985219;28;20057;-76
2023/12/17 11:50:46;;;;;;;14.80;6.75;;;9.70;99.90;;;;;;5002034;28;20038;-76
2023/12/17 11:53:13;;;;;;;17.83;7.80;;;9.70;99.90;;;;;;4999579;28;20050;-77
2023/12/17 11:55:46;;;;;;;18.40;6.47;;;9.60;99.90;;;;;;5001676;28;20060;-76
2023/12/17 11:58:15;;;;;;;18.35;6.47;;;9.60;99.90;;;;;;4997877;28;20057;-76
2023/12/17 12:00:43;;;;;;;18.35;6.32;;;9.60;99.90;;;;;;5014381;28;20046;-77
2023/12/17 12:03:08;;;;;;;17.67;6.38;;;9.60;99.90;;;;;;4999377;28;20114;-76
2023/12/17 12:05:34;;;;;;;22.52;7.78;;;9.70;99.90;;;;;;4978289;28;20039;-82
2023/12/17 12:08:00;;;;;;;18.15;7.47;;;9.80;99.90;;;;;;5000245;28;20120;-83
2023/12/17 12:10:25;;;;;;;23.27;9.43;;;9.80;99.90;;;;;;4991054;28;20054;-83
2023/12/17 12:13:02;;;;;;;19.23;7.43;;;9.90;99.90;;;;;;5017623;28;20045;-84
2023/12/17 12:15:28;;;;;;;15.32;6.50;;;9.90;99.90;;;;;;4998083;28;20065;-83
2023/12/17 12:17:53;;;;;;;13.25;6.13;;;9.90;99.90;;;;;;4985561;28;20050;-83
2023/12/17 12:20:34;;;;;;;17.80;6.38;;;9.90;99.90;;;;;;4994378;28;20035;-83
2023/12/17 12:23:00;;;;;;;13.75;5.05;;;9.90;99.90;;;;;;4995234;28;20533;-84
2023/12/17 12:25:26;;;;;;;18.70;7.70;;;9.90;99.90;;;;;;4999201;28;20046;-84
2023/12/17 12:27:52;;;;;;;17.45;7.10;;;9.80;99.90;;;;;;4997538;28;20053;-83
2023/12/17 12:30:29;;;;;;;20.08;6.75;;;9.70;99.90;;;;;;5000896;28;20046;-83
2023/12/17 12:32:58;;;;;;;16.38;6.35;;;9.60;99.90;;;;;;4992959;28;20490;-83
2023/12/17 12:35:29;;;;;;;13.98;6.68;;;9.50;99.90;;;;;;5002777;28;20038;-83
2023/12/17 12:37:56;;;;;;;19.77;6.78;;;9.50;99.90;;;;;;5011333;28;20046;-84
2023/12/17 12:40:33;;;;;;;22.77;7.53;;;9.50;99.90;;;;;;4996860;28;20050;-83
2023/12/17 12:43:03;;;;;;;18.55;6.18;;;9.50;99.90;;;;;;5004910;28;20039;-83
2023/12/17 12:45:28;;;;;;;16.50;7.47;;;9.50;99.90;;;;;;5009575;28;20034;-83
2023/12/17 12:47:54;;;;;;;22.48;6.80;;;9.50;99.90;;;;;;4979751;28;20104;-84